KFHU/FHU METAR and TAF weather

Enter ICAO airport designator
Station Type Date Time Source
KFHU METAR 2022/01/23 12:58 UTC NOAA

KFHU 231258Z AUTO 00000KT 9SM FEW060 03/01 A3008 RMK AO2 UPE08 SLP167 TMP 03C RWY 08 P0000 T00340012


Station Type Date Time Source
KFHU Decoded METAR 2022/01/23 12:58 UTC NOAA

Fort Huachuca, Libby AAF Ft Huachuca, AZ, United States (KFHU) 46-98N 110-20W
Jan 23, 2022 - 07:58 AM EST / 2022.01.23 1258 UTC
Wind: Calm:0
Visibility: 9 mile(s):0
Sky conditions: mostly clear
Precipitation last hour: A trace
Temperature: 38.1 F (3.4 C)
Dew Point: 34.2 F (1.2 C)
Relative Humidity: 85%
Pressure (altimeter): 30.08 in. Hg (1018 hPa)
ob: KFHU 231258Z AUTO 00000KT 9SM FEW060 03/01 A3008 RMK AO2 UPE08 SLP167 TMP 03C RWY 08 P0000 T00340012
cycle: 13

Station Type Date Time Source
KFHU TAF 2022/01/21 22:03 UTC NOAA

TAF KFHU 212200Z 2122/2304 20009KT 9999 SKC QNH2994INS
TEMPO 2122/2202 22010G16KT 510007
BECMG 2208/2209 16009KT 9999 SKC QNH2994INS
BECMG 2216/2217 14010G16KT 9999 SKC 510005 QNH3004INS
BECMG 2218/2219 14015G22KT 9999 SKC 520005 QNH3000INS
TEMPO 2220/2301 18018G30KT 530005 TX17/2122Z TN03/2212Z LAST NO
AMDS AFT 2206 NEXT 2406

Example: see airport list